Aérodrome :
LOGIN :

S'inscrire | Disclaimer

   EN    FR    IT 

 










Légende :    VFR   VFR Marginal   IFR   IFR Intensif   IFR Très Intensif
Visi : 
Plafond : 
>= 8 km
>= 3000ft
5 à 8 km
1000 à 3000 ft
1500m à 5 km
500 à 1000 ft
800 à 1500m
200 à 500 ft
< 800m
< 200 ft
Symboles :   Orages  Brouillard  Fortes neiges  Fortes précipitations  Vent > 20 kt
SIGMETs :   Divers  Orages  Givrage  Turbulence  Onde Orograph.  Cendres Volcan.







- Altitude de l'aérodrome : 29 ft
- Code IATA : SVG


ENZV - Sola

DERNIER METAR :
  • 192150Z 18002KT 5000 DZ BR SCT006 BKN012 11/11 Q1012

METARs EXPIRÉS :
  • 192120Z 19001KT 5000 -DZ BR FEW004 BKN007 11/11 Q1012
  • 192050Z 00000KT 5000 -DZRA BR SCT005 BKN010 11/11 Q1012
  • 192020Z 26001KT 5000 -DZ BR SCT006 BKN010 11/11 Q1012
  • 191950Z VRB01KT 5000 -DZ BR SCT006 BKN015 11/11 Q1012
  • 191920Z 00000KT 4000 -DZRA BR SCT006 BKN014 11/11 Q1012 TEMPO 2500 RADZ BR BKN006

TAF TAF ENZV
Valide du 19 à 18h jusqu'au 20 à 18h UTC


1918/2018 VRB05KT 9999 -RA SCT008 BKN020
TEMPO 1918/2014 3000 RADZ BR BKN006
BECMG 2000/2003 16010KT
PROB40 2009/2012 25008KT
Pas de NOTAMs connus pour ce terrain.



MET'MAP, la Météo Aéronautique d'un coup d'oeil ! - Copyright ORBIFLY Décembre 2007 - Disclaimer

ORBIFLY MET'MAP TEAM :

Programmation & Développement : Alexandra Zaïnal
Conception & Développement : Baudouin d'Aumeries
Co-Programmation & Développement : Marc-Olivier Méhu
Soutien technique & logistique : Manuel Goepfert

Contact : metmap@orbifly.com




SOURCES & CREDITS :

   NOAA